Windermere, Canada
Current Conditions -  °F | °C
As of 7:00 PM on Thursday 18 Dec 2014 (Local Time) from CYXC Reporting Station
Broken Clouds Broken Clouds  
Wind Chill: 28°   Ceiling: 8000
Heat Index: 28°   Visibility: 20mi
Dew Point: 25°   Wind: 2mph
Humidity: 86%   Direction: NA
Pressure: 29.94"   Gusts: NA
Location:  50.47°N, 115.97°W
Report Text: CYXC 190200Z VRB02KT 20SM FEW050 BKN080 M02/M04 A2994 RMK SC2AC5 SLP176
Loading
Personal Weather Stations






























Interactive Weather Map New forecast layout! Learn more

10-Day Weather Forecast

Advertisements
Track Severe Weather on mobile